sensor_id;sensor_type;location;lat;lon;timestamp;P1;durP1;ratioP1;P2;durP2;ratioP2
71806;SDS011;59655;42.590;23.364;2023-10-13T00:01:59;7.88;;;3.25;;
71806;SDS011;59655;42.590;23.364;2023-10-13T00:04:29;6.00;;;3.38;;
71806;SDS011;59655;42.590;23.364;2023-10-13T00:06:56;5.28;;;3.00;;
71806;SDS011;59655;42.590;23.364;2023-10-13T00:09:22;6.00;;;3.15;;
71806;SDS011;59655;42.590;23.364;2023-10-13T00:11:57;7.20;;;3.13;;
71806;SDS011;59655;42.590;23.364;2023-10-13T00:14:23;5.55;;;3.10;;
71806;SDS011;59655;42.590;23.364;2023-10-13T00:16:55;4.75;;;2.70;;
71806;SDS011;59655;42.590;23.364;2023-10-13T00:19:34;5.47;;;3.03;;
71806;SDS011;59655;42.590;23.364;2023-10-13T00:22:10;5.53;;;2.80;;
71806;SDS011;59655;42.590;23.364;2023-10-13T00:24:39;6.97;;;2.95;;
71806;SDS011;59655;42.590;23.364;2023-10-13T00:27:12;5.38;;;2.67;;
71806;SDS011;59655;42.590;23.364;2023-10-13T00:29:58;5.28;;;3.30;;
71806;SDS011;59655;42.590;23.364;2023-10-13T00:32:43;5.10;;;2.70;;
71806;SDS011;59655;42.590;23.364;2023-10-13T00:35:11;4.85;;;2.72;;
71806;SDS011;59655;42.590;23.364;2023-10-13T00:37:57;5.30;;;2.85;;
71806;SDS011;59655;42.590;23.364;2023-10-13T00:40:24;6.78;;;2.83;;
71806;SDS011;59655;42.590;23.364;2023-10-13T00:43:00;9.38;;;2.80;;
71806;SDS011;59655;42.590;23.364;2023-10-13T00:45:53;5.05;;;3.03;;
71806;SDS011;59655;42.590;23.364;2023-10-13T00:51:08;5.85;;;3.15;;
71806;SDS011;59655;42.590;23.364;2023-10-13T00:53:44;6.85;;;3.20;;
71806;SDS011;59655;42.590;23.364;2023-10-13T00:56:12;6.18;;;3.03;;
71806;SDS011;59655;42.590;23.364;2023-10-13T00:58:48;6.13;;;2.85;;
71806;SDS011;59655;42.590;23.364;2023-10-13T01:01:18;6.35;;;2.80;;
71806;SDS011;59655;42.590;23.364;2023-10-13T01:03:47;5.55;;;2.75;;
71806;SDS011;59655;42.590;23.364;2023-10-13T01:06:17;8.93;;;3.35;;
71806;SDS011;59655;42.590;23.364;2023-10-13T01:08:46;8.68;;;3.08;;
71806;SDS011;59655;42.590;23.364;2023-10-13T01:11:18;6.63;;;2.83;;
71806;SDS011;59655;42.590;23.364;2023-10-13T01:13:44;7.43;;;4.97;;
71806;SDS011;59655;42.590;23.364;2023-10-13T01:16:16;6.75;;;3.25;;
71806;SDS011;59655;42.590;23.364;2023-10-13T01:18:41;8.48;;;3.72;;
71806;SDS011;59655;42.590;23.364;2023-10-13T01:21:13;7.20;;;3.63;;
71806;SDS011;59655;42.590;23.364;2023-10-13T01:23:43;6.97;;;3.67;;
71806;SDS011;59655;42.590;23.364;2023-10-13T01:26:09;6.70;;;3.65;;
71806;SDS011;59655;42.590;23.364;2023-10-13T01:28:37;7.30;;;3.40;;
71806;SDS011;59655;42.590;23.364;2023-10-13T01:31:11;7.22;;;4.60;;
71806;SDS011;59655;42.590;23.364;2023-10-13T01:33:58;7.43;;;3.80;;
71806;SDS011;59655;42.590;23.364;2023-10-13T01:36:24;8.73;;;4.35;;
71806;SDS011;59655;42.590;23.364;2023-10-13T01:38:51;7.22;;;3.38;;
71806;SDS011;59655;42.590;23.364;2023-10-13T01:41:18;7.20;;;3.17;;
71806;SDS011;59655;42.590;23.364;2023-10-13T01:43:45;7.55;;;2.97;;
71806;SDS011;59655;42.590;23.364;2023-10-13T01:46:11;5.88;;;2.70;;
71806;SDS011;59655;42.590;23.364;2023-10-13T01:48:40;5.10;;;2.78;;
71806;SDS011;59655;42.590;23.364;2023-10-13T01:51:08;5.00;;;2.63;;
71806;SDS011;59655;42.590;23.364;2023-10-13T01:53:38;5.55;;;3.00;;
71806;SDS011;59655;42.590;23.364;2023-10-13T01:56:05;7.50;;;3.35;;
71806;SDS011;59655;42.590;23.364;2023-10-13T01:58:35;5.50;;;3.30;;
71806;SDS011;59655;42.590;23.364;2023-10-13T02:01:01;9.50;;;3.72;;
71806;SDS011;59655;42.590;23.364;2023-10-13T02:03:32;7.90;;;3.88;;
71806;SDS011;59655;42.590;23.364;2023-10-13T02:05:57;6.53;;;3.50;;
71806;SDS011;59655;42.590;23.364;2023-10-13T02:08:29;6.95;;;3.38;;
71806;SDS011;59655;42.590;23.364;2023-10-13T02:10:55;6.55;;;3.20;;
71806;SDS011;59655;42.590;23.364;2023-10-13T02:13:22;10.25;;;3.58;;
71806;SDS011;59655;42.590;23.364;2023-10-13T02:15:49;8.82;;;3.50;;
71806;SDS011;59655;42.590;23.364;2023-10-13T02:18:21;8.60;;;3.72;;
71806;SDS011;59655;42.590;23.364;2023-10-13T02:20:54;7.95;;;3.50;;
71806;SDS011;59655;42.590;23.364;2023-10-13T02:23:22;5.65;;;2.80;;
71806;SDS011;59655;42.590;23.364;2023-10-13T02:25:48;5.95;;;2.88;;
71806;SDS011;59655;42.590;23.364;2023-10-13T02:28:19;7.03;;;2.92;;
71806;SDS011;59655;42.590;23.364;2023-10-13T02:30:53;5.85;;;2.65;;
71806;SDS011;59655;42.590;23.364;2023-10-13T02:33:18;8.20;;;2.17;;
71806;SDS011;59655;42.590;23.364;2023-10-13T02:35:47;4.32;;;1.83;;
71806;SDS011;59655;42.590;23.364;2023-10-13T02:38:20;7.07;;;2.15;;
71806;SDS011;59655;42.590;23.364;2023-10-13T02:41:13;6.50;;;3.35;;
71806;SDS011;59655;42.590;23.364;2023-10-13T02:44:05;4.80;;;1.60;;
71806;SDS011;59655;42.590;23.364;2023-10-13T02:46:33;6.13;;;1.73;;
71806;SDS011;59655;42.590;23.364;2023-10-13T02:49:05;4.65;;;1.75;;
71806;SDS011;59655;42.590;23.364;2023-10-13T02:51:36;4.85;;;1.40;;
71806;SDS011;59655;42.590;23.364;2023-10-13T02:54:05;5.32;;;1.77;;
71806;SDS011;59655;42.590;23.364;2023-10-13T02:56:43;4.68;;;2.38;;
71806;SDS011;59655;42.590;23.364;2023-10-13T02:59:14;6.32;;;2.50;;
71806;SDS011;59655;42.590;23.364;2023-10-13T03:01:40;6.65;;;2.88;;
71806;SDS011;59655;42.590;23.364;2023-10-13T03:04:06;5.63;;;2.50;;
71806;SDS011;59655;42.590;23.364;2023-10-13T03:06:34;8.77;;;2.75;;
71806;SDS011;59655;42.590;23.364;2023-10-13T03:09:07;6.68;;;2.97;;
71806;SDS011;59655;42.590;23.364;2023-10-13T03:11:40;7.97;;;3.40;;
71806;SDS011;59655;42.590;23.364;2023-10-13T03:14:16;9.55;;;4.13;;
71806;SDS011;59655;42.590;23.364;2023-10-13T03:16:54;10.63;;;3.65;;
71806;SDS011;59655;42.590;23.364;2023-10-13T03:19:27;7.85;;;3.95;;
71806;SDS011;59655;42.590;23.364;2023-10-13T03:21:58;11.15;;;4.13;;
71806;SDS011;59655;42.590;23.364;2023-10-13T03:24:32;9.60;;;4.70;;
71806;SDS011;59655;42.590;23.364;2023-10-13T03:27:01;8.80;;;3.92;;
71806;SDS011;59655;42.590;23.364;2023-10-13T03:29:42;8.18;;;4.47;;
71806;SDS011;59655;42.590;23.364;2023-10-13T03:32:12;12.40;;;4.32;;
71806;SDS011;59655;42.590;23.364;2023-10-13T03:34:40;7.85;;;3.72;;
71806;SDS011;59655;42.590;23.364;2023-10-13T03:37:14;11.60;;;4.90;;
71806;SDS011;59655;42.590;23.364;2023-10-13T03:40:00;11.63;;;5.18;;
71806;SDS011;59655;42.590;23.364;2023-10-13T03:42:31;9.85;;;4.35;;
71806;SDS011;59655;42.590;23.364;2023-10-13T03:44:57;11.80;;;5.00;;
71806;SDS011;59655;42.590;23.364;2023-10-13T03:47:22;9.23;;;5.15;;
71806;SDS011;59655;42.590;23.364;2023-10-13T03:49:57;9.23;;;5.40;;
71806;SDS011;59655;42.590;23.364;2023-10-13T03:52:40;8.30;;;4.82;;
71806;SDS011;59655;42.590;23.364;2023-10-13T03:55:06;16.38;;;5.35;;
71806;SDS011;59655;42.590;23.364;2023-10-13T03:57:32;17.90;;;5.07;;
71806;SDS011;59655;42.590;23.364;2023-10-13T04:00:03;11.68;;;3.85;;
71806;SDS011;59655;42.590;23.364;2023-10-13T04:02:34;7.88;;;3.20;;
71806;SDS011;59655;42.590;23.364;2023-10-13T04:05:01;7.25;;;2.88;;
71806;SDS011;59655;42.590;23.364;2023-10-13T04:07:33;9.90;;;2.85;;
71806;SDS011;59655;42.590;23.364;2023-10-13T04:10:07;5.97;;;2.92;;
71806;SDS011;59655;42.590;23.364;2023-10-13T04:12:56;8.00;;;3.28;;
71806;SDS011;59655;42.590;23.364;2023-10-13T04:15:42;11.60;;;3.78;;
71806;SDS011;59655;42.590;23.364;2023-10-13T04:18:27;8.50;;;3.10;;
71806;SDS011;59655;42.590;23.364;2023-10-13T04:21:11;11.95;;;3.50;;
71806;SDS011;59655;42.590;23.364;2023-10-13T04:23:56;4.35;;;2.38;;
71806;SDS011;59655;42.590;23.364;2023-10-13T04:26:40;4.70;;;2.08;;
71806;SDS011;59655;42.590;23.364;2023-10-13T04:29:26;9.93;;;3.08;;
71806;SDS011;59655;42.590;23.364;2023-10-13T04:32:15;5.00;;;1.95;;
71806;SDS011;59655;42.590;23.364;2023-10-13T04:34:53;12.90;;;3.78;;
71806;SDS011;59655;42.590;23.364;2023-10-13T04:37:55;6.40;;;1.70;;
71806;SDS011;59655;42.590;23.364;2023-10-13T04:40:26;7.18;;;2.35;;
71806;SDS011;59655;42.590;23.364;2023-10-13T04:43:00;8.27;;;3.20;;
71806;SDS011;59655;42.590;23.364;2023-10-13T04:45:46;8.85;;;4.25;;
71806;SDS011;59655;42.590;23.364;2023-10-13T04:48:34;12.02;;;4.65;;
71806;SDS011;59655;42.590;23.364;2023-10-13T04:51:03;15.70;;;5.93;;
71806;SDS011;59655;42.590;23.364;2023-10-13T04:53:47;11.57;;;5.65;;
71806;SDS011;59655;42.590;23.364;2023-10-13T04:56:28;14.50;;;6.30;;
71806;SDS011;59655;42.590;23.364;2023-10-13T04:59:23;14.43;;;6.03;;
71806;SDS011;59655;42.590;23.364;2023-10-13T05:02:02;19.30;;;7.35;;
71806;SDS011;59655;42.590;23.364;2023-10-13T05:04:46;14.68;;;6.57;;
71806;SDS011;59655;42.590;23.364;2023-10-13T05:07:38;17.00;;;7.32;;
71806;SDS011;59655;42.590;23.364;2023-10-13T05:10:23;25.50;;;10.05;;
71806;SDS011;59655;42.590;23.364;2023-10-13T05:13:06;24.77;;;9.48;;
71806;SDS011;59655;42.590;23.364;2023-10-13T05:15:50;21.88;;;8.40;;
71806;SDS011;59655;42.590;23.364;2023-10-13T05:18:34;14.52;;;7.25;;
71806;SDS011;59655;42.590;23.364;2023-10-13T05:21:19;13.68;;;6.45;;
71806;SDS011;59655;42.590;23.364;2023-10-13T05:24:03;28.48;;;8.05;;
71806;SDS011;59655;42.590;23.364;2023-10-13T05:26:48;23.15;;;8.23;;
71806;SDS011;59655;42.590;23.364;2023-10-13T05:29:32;28.77;;;8.40;;
71806;SDS011;59655;42.590;23.364;2023-10-13T05:32:17;24.73;;;8.65;;
71806;SDS011;59655;42.590;23.364;2023-10-13T05:35:01;30.08;;;7.72;;
71806;SDS011;59655;42.590;23.364;2023-10-13T05:37:45;24.42;;;7.00;;
71806;SDS011;59655;42.590;23.364;2023-10-13T05:40:29;26.73;;;6.47;;
71806;SDS011;59655;42.590;23.364;2023-10-13T05:43:15;14.20;;;5.72;;
71806;SDS011;59655;42.590;23.364;2023-10-13T05:46:02;10.95;;;4.80;;
71806;SDS011;59655;42.590;23.364;2023-10-13T05:49:07;14.27;;;5.63;;
71806;SDS011;59655;42.590;23.364;2023-10-13T05:51:36;52.55;;;22.63;;
71806;SDS011;59655;42.590;23.364;2023-10-13T05:54:11;91.78;;;37.53;;
71806;SDS011;59655;42.590;23.364;2023-10-13T05:56:44;37.20;;;17.65;;
71806;SDS011;59655;42.590;23.364;2023-10-13T05:59:35;21.80;;;8.43;;
71806;SDS011;59655;42.590;23.364;2023-10-13T06:02:20;24.05;;;7.85;;
71806;SDS011;59655;42.590;23.364;2023-10-13T06:05:06;47.30;;;20.58;;
71806;SDS011;59655;42.590;23.364;2023-10-13T06:07:52;46.03;;;21.83;;
71806;SDS011;59655;42.590;23.364;2023-10-13T06:10:37;34.65;;;15.30;;
71806;SDS011;59655;42.590;23.364;2023-10-13T06:13:21;25.58;;;9.10;;
71806;SDS011;59655;42.590;23.364;2023-10-13T06:16:09;14.27;;;7.05;;
71806;SDS011;59655;42.590;23.364;2023-10-13T06:18:54;16.83;;;6.85;;
71806;SDS011;59655;42.590;23.364;2023-10-13T06:21:38;15.75;;;8.27;;
71806;SDS011;59655;42.590;23.364;2023-10-13T06:24:23;20.27;;;8.80;;
71806;SDS011;59655;42.590;23.364;2023-10-13T06:27:07;18.38;;;8.07;;
71806;SDS011;59655;42.590;23.364;2023-10-13T06:29:51;14.65;;;6.70;;
71806;SDS011;59655;42.590;23.364;2023-10-13T06:32:18;21.60;;;14.13;;
71806;SDS011;59655;42.590;23.364;2023-10-13T06:34:44;22.08;;;17.95;;
71806;SDS011;59655;42.590;23.364;2023-10-13T06:37:16;16.40;;;11.63;;
71806;SDS011;59655;42.590;23.364;2023-10-13T06:39:55;16.20;;;8.88;;
71806;SDS011;59655;42.590;23.364;2023-10-13T06:42:25;12.77;;;6.15;;
71806;SDS011;59655;42.590;23.364;2023-10-13T06:44:54;11.30;;;5.93;;
71806;SDS011;59655;42.590;23.364;2023-10-13T06:47:22;10.13;;;5.13;;
71806;SDS011;59655;42.590;23.364;2023-10-13T06:49:49;12.93;;;5.30;;
71806;SDS011;59655;42.590;23.364;2023-10-13T06:52:22;9.25;;;5.00;;
71806;SDS011;59655;42.590;23.364;2023-10-13T06:54:54;10.88;;;5.22;;
71806;SDS011;59655;42.590;23.364;2023-10-13T06:57:20;9.35;;;4.43;;
71806;SDS011;59655;42.590;23.364;2023-10-13T06:59:46;11.25;;;4.95;;
71806;SDS011;59655;42.590;23.364;2023-10-13T07:02:12;16.17;;;5.32;;
71806;SDS011;59655;42.590;23.364;2023-10-13T07:04:49;11.88;;;5.38;;
71806;SDS011;59655;42.590;23.364;2023-10-13T07:07:36;8.80;;;4.35;;
71806;SDS011;59655;42.590;23.364;2023-10-13T07:10:03;12.30;;;4.75;;
71806;SDS011;59655;42.590;23.364;2023-10-13T07:12:33;11.23;;;5.47;;
71806;SDS011;59655;42.590;23.364;2023-10-13T07:14:58;12.10;;;4.63;;
71806;SDS011;59655;42.590;23.364;2023-10-13T07:17:49;11.10;;;4.88;;
71806;SDS011;59655;42.590;23.364;2023-10-13T07:20:32;10.90;;;4.80;;
71806;SDS011;59655;42.590;23.364;2023-10-13T07:22:57;9.70;;;4.70;;
71806;SDS011;59655;42.590;23.364;2023-10-13T07:25:28;13.07;;;5.45;;
71806;SDS011;59655;42.590;23.364;2023-10-13T07:28:05;14.90;;;6.07;;
71806;SDS011;59655;42.590;23.364;2023-10-13T07:30:34;12.68;;;5.35;;
71806;SDS011;59655;42.590;23.364;2023-10-13T07:33:18;12.88;;;4.60;;
71806;SDS011;59655;42.590;23.364;2023-10-13T07:36:27;10.90;;;4.43;;
71806;SDS011;59655;42.590;23.364;2023-10-13T07:38:40;11.88;;;5.13;;
71806;SDS011;59655;42.590;23.364;2023-10-13T07:41:08;11.10;;;4.60;;
71806;SDS011;59655;42.590;23.364;2023-10-13T07:43:34;11.48;;;5.50;;
71806;SDS011;59655;42.590;23.364;2023-10-13T07:45:59;8.23;;;4.90;;
71806;SDS011;59655;42.590;23.364;2023-10-13T07:48:31;10.02;;;4.38;;
71806;SDS011;59655;42.590;23.364;2023-10-13T07:51:02;11.30;;;4.53;;
71806;SDS011;59655;42.590;23.364;2023-10-13T07:53:29;11.25;;;4.43;;
71806;SDS011;59655;42.590;23.364;2023-10-13T07:55:59;11.40;;;4.38;;
71806;SDS011;59655;42.590;23.364;2023-10-13T07:58:30;8.35;;;4.82;;
71806;SDS011;59655;42.590;23.364;2023-10-13T08:00:59;9.18;;;4.53;;
71806;SDS011;59655;42.590;23.364;2023-10-13T08:03:41;8.90;;;3.92;;
71806;SDS011;59655;42.590;23.364;2023-10-13T08:06:13;7.93;;;4.53;;
71806;SDS011;59655;42.590;23.364;2023-10-13T08:08:40;11.75;;;5.20;;
71806;SDS011;59655;42.590;23.364;2023-10-13T08:11:12;10.80;;;4.78;;
71806;SDS011;59655;42.590;23.364;2023-10-13T08:13:48;9.23;;;4.47;;
71806;SDS011;59655;42.590;23.364;2023-10-13T08:16:19;10.48;;;4.15;;
71806;SDS011;59655;42.590;23.364;2023-10-13T08:18:51;10.10;;;5.13;;
71806;SDS011;59655;42.590;23.364;2023-10-13T08:21:17;12.77;;;5.05;;
71806;SDS011;59655;42.590;23.364;2023-10-13T08:23:50;12.63;;;4.85;;
71806;SDS011;59655;42.590;23.364;2023-10-13T08:26:23;9.65;;;4.75;;
71806;SDS011;59655;42.590;23.364;2023-10-13T08:29:05;11.25;;;4.70;;
71806;SDS011;59655;42.590;23.364;2023-10-13T08:31:51;8.88;;;4.25;;
71806;SDS011;59655;42.590;23.364;2023-10-13T08:34:33;10.27;;;5.00;;
71806;SDS011;59655;42.590;23.364;2023-10-13T08:37:08;10.38;;;4.90;;
71806;SDS011;59655;42.590;23.364;2023-10-13T08:39:46;12.38;;;5.15;;
71806;SDS011;59655;42.590;23.364;2023-10-13T08:42:43;15.05;;;5.60;;
71806;SDS011;59655;42.590;23.364;2023-10-13T08:47:48;13.18;;;6.13;;
71806;SDS011;59655;42.590;23.364;2023-10-13T08:50:38;11.65;;;5.95;;
71806;SDS011;59655;42.590;23.364;2023-10-13T08:53:18;13.27;;;5.78;;
71806;SDS011;59655;42.590;23.364;2023-10-13T08:55:56;14.90;;;6.05;;
71806;SDS011;59655;42.590;23.364;2023-10-13T08:58:38;14.90;;;5.53;;
71806;SDS011;59655;42.590;23.364;2023-10-13T09:01:21;11.15;;;4.90;;
71806;SDS011;59655;42.590;23.364;2023-10-13T09:04:06;13.70;;;5.18;;
71806;SDS011;59655;42.590;23.364;2023-10-13T09:09:32;14.25;;;6.78;;
71806;SDS011;59655;42.590;23.364;2023-10-13T09:12:20;15.93;;;6.15;;
71806;SDS011;59655;42.590;23.364;2023-10-13T09:15:08;14.73;;;6.47;;
71806;SDS011;59655;42.590;23.364;2023-10-13T09:20:33;13.77;;;6.30;;
71806;SDS011;59655;42.590;23.364;2023-10-13T09:23:08;23.05;;;6.88;;
71806;SDS011;59655;42.590;23.364;2023-10-13T09:25:48;13.20;;;6.15;;
71806;SDS011;59655;42.590;23.364;2023-10-13T09:28:23;17.40;;;6.75;;
71806;SDS011;59655;42.590;23.364;2023-10-13T09:30:54;14.48;;;6.65;;
71806;SDS011;59655;42.590;23.364;2023-10-13T09:33:28;18.02;;;6.97;;
71806;SDS011;59655;42.590;23.364;2023-10-13T09:35:58;15.18;;;5.55;;
71806;SDS011;59655;42.590;23.364;2023-10-13T09:38:24;14.20;;;6.05;;
71806;SDS011;59655;42.590;23.364;2023-10-13T09:43:22;11.93;;;4.55;;
71806;SDS011;59655;42.590;23.364;2023-10-13T09:45:49;16.52;;;6.35;;
71806;SDS011;59655;42.590;23.364;2023-10-13T09:48:42;18.38;;;5.93;;
71806;SDS011;59655;42.590;23.364;2023-10-13T09:51:18;17.13;;;5.30;;
71806;SDS011;59655;42.590;23.364;2023-10-13T09:53:56;14.70;;;5.07;;
71806;SDS011;59655;42.590;23.364;2023-10-13T09:56:35;13.18;;;5.80;;
71806;SDS011;59655;42.590;23.364;2023-10-13T09:59:17;15.35;;;5.90;;
71806;SDS011;59655;42.590;23.364;2023-10-13T10:01:49;20.27;;;6.97;;
71806;SDS011;59655;42.590;23.364;2023-10-13T10:04:17;15.10;;;6.72;;
71806;SDS011;59655;42.590;23.364;2023-10-13T10:06:56;14.30;;;6.07;;
71806;SDS011;59655;42.590;23.364;2023-10-13T10:17:45;15.68;;;6.28;;
71806;SDS011;59655;42.590;23.364;2023-10-13T10:20:10;14.85;;;6.68;;
71806;SDS011;59655;42.590;23.364;2023-10-13T10:22:58;11.35;;;5.65;;
71806;SDS011;59655;42.590;23.364;2023-10-13T10:25:31;15.88;;;5.07;;
71806;SDS011;59655;42.590;23.364;2023-10-13T10:28:01;8.55;;;2.15;;
71806;SDS011;59655;42.590;23.364;2023-10-13T10:30:31;5.93;;;2.15;;
71806;SDS011;59655;42.590;23.364;2023-10-13T10:32:59;5.85;;;2.45;;
71806;SDS011;59655;42.590;23.364;2023-10-13T10:35:26;6.35;;;2.20;;
71806;SDS011;59655;42.590;23.364;2023-10-13T10:37:58;5.82;;;1.92;;
71806;SDS011;59655;42.590;23.364;2023-10-13T10:40:47;6.63;;;2.13;;
71806;SDS011;59655;42.590;23.364;2023-10-13T10:48:39;44.08;;;6.57;;
71806;SDS011;59655;42.590;23.364;2023-10-13T10:51:08;24.48;;;3.97;;
71806;SDS011;59655;42.590;23.364;2023-10-13T10:53:48;24.02;;;3.92;;
71806;SDS011;59655;42.590;23.364;2023-10-13T10:56:17;10.15;;;2.90;;
71806;SDS011;59655;42.590;23.364;2023-10-13T10:58:54;7.05;;;2.65;;
71806;SDS011;59655;42.590;23.364;2023-10-13T11:01:23;7.18;;;2.75;;
71806;SDS011;59655;42.590;23.364;2023-10-13T11:03:56;9.98;;;2.67;;
71806;SDS011;59655;42.590;23.364;2023-10-13T11:06:26;5.85;;;2.10;;
71806;SDS011;59655;42.590;23.364;2023-10-13T11:09:02;6.25;;;2.80;;
71806;SDS011;59655;42.590;23.364;2023-10-13T11:11:32;8.23;;;2.22;;
71806;SDS011;59655;42.590;23.364;2023-10-13T11:14:00;6.30;;;2.28;;
71806;SDS011;59655;42.590;23.364;2023-10-13T11:16:48;4.72;;;2.05;;
71806;SDS011;59655;42.590;23.364;2023-10-13T11:19:41;4.55;;;2.00;;
71806;SDS011;59655;42.590;23.364;2023-10-13T11:24:42;11.40;;;2.13;;
71806;SDS011;59655;42.590;23.364;2023-10-13T11:27:14;6.15;;;2.25;;
71806;SDS011;59655;42.590;23.364;2023-10-13T11:29:46;6.22;;;2.08;;
71806;SDS011;59655;42.590;23.364;2023-10-13T11:32:17;11.40;;;2.60;;
71806;SDS011;59655;42.590;23.364;2023-10-13T11:34:45;8.98;;;2.45;;
71806;SDS011;59655;42.590;23.364;2023-10-13T11:37:16;6.07;;;2.35;;
71806;SDS011;59655;42.590;23.364;2023-10-13T11:40:04;7.25;;;2.40;;
71806;SDS011;59655;42.590;23.364;2023-10-13T11:42:38;5.68;;;2.22;;
71806;SDS011;59655;42.590;23.364;2023-10-13T11:45:08;7.55;;;2.20;;
71806;SDS011;59655;42.590;23.364;2023-10-13T11:47:53;6.10;;;2.65;;
71806;SDS011;59655;42.590;23.364;2023-10-13T11:50:25;5.93;;;2.00;;
71806;SDS011;59655;42.590;23.364;2023-10-13T11:53:00;8.55;;;2.10;;
71806;SDS011;59655;42.590;23.364;2023-10-13T11:55:26;5.18;;;1.70;;
71806;SDS011;59655;42.590;23.364;2023-10-13T11:57:52;5.13;;;1.90;;
71806;SDS011;59655;42.590;23.364;2023-10-13T12:00:17;5.82;;;2.15;;
71806;SDS011;59655;42.590;23.364;2023-10-13T12:03:12;6.95;;;2.15;;
71806;SDS011;59655;42.590;23.364;2023-10-13T12:05:56;7.72;;;2.00;;
71806;SDS011;59655;42.590;23.364;2023-10-13T12:08:43;4.75;;;2.00;;
71806;SDS011;59655;42.590;23.364;2023-10-13T12:11:15;8.23;;;2.35;;
71806;SDS011;59655;42.590;23.364;2023-10-13T12:13:56;7.82;;;2.55;;
71806;SDS011;59655;42.590;23.364;2023-10-13T12:16:22;6.55;;;2.10;;
71806;SDS011;59655;42.590;23.364;2023-10-13T12:18:48;5.55;;;2.35;;
71806;SDS011;59655;42.590;23.364;2023-10-13T12:21:21;9.18;;;1.95;;
71806;SDS011;59655;42.590;23.364;2023-10-13T12:23:47;10.88;;;2.30;;
71806;SDS011;59655;42.590;23.364;2023-10-13T12:26:12;8.45;;;3.28;;
71806;SDS011;59655;42.590;23.364;2023-10-13T12:28:44;8.30;;;2.15;;
71806;SDS011;59655;42.590;23.364;2023-10-13T12:31:17;6.22;;;2.22;;
71806;SDS011;59655;42.590;23.364;2023-10-13T12:33:51;8.27;;;2.58;;
71806;SDS011;59655;42.590;23.364;2023-10-13T12:36:17;6.93;;;2.10;;
71806;SDS011;59655;42.590;23.364;2023-10-13T12:38:56;3.95;;;1.90;;
71806;SDS011;59655;42.590;23.364;2023-10-13T12:41:33;5.72;;;1.80;;
71806;SDS011;59655;42.590;23.364;2023-10-13T12:44:17;7.93;;;2.22;;
71806;SDS011;59655;42.590;23.364;2023-10-13T12:47:01;7.68;;;2.10;;
71806;SDS011;59655;42.590;23.364;2023-10-13T12:49:45;8.23;;;2.08;;
71806;SDS011;59655;42.590;23.364;2023-10-13T12:52:11;5.53;;;1.73;;
71806;SDS011;59655;42.590;23.364;2023-10-13T12:55:03;6.47;;;2.20;;
71806;SDS011;59655;42.590;23.364;2023-10-13T12:57:32;7.43;;;2.33;;
71806;SDS011;59655;42.590;23.364;2023-10-13T12:59:57;6.28;;;2.42;;
71806;SDS011;59655;42.590;23.364;2023-10-13T13:02:23;6.97;;;2.33;;
71806;SDS011;59655;42.590;23.364;2023-10-13T13:04:53;9.65;;;2.50;;
71806;SDS011;59655;42.590;23.364;2023-10-13T13:07:25;6.68;;;2.67;;
71806;SDS011;59655;42.590;23.364;2023-10-13T13:09:54;7.20;;;2.35;;
71806;SDS011;59655;42.590;23.364;2023-10-13T13:12:23;6.25;;;2.33;;
71806;SDS011;59655;42.590;23.364;2023-10-13T13:14:49;6.93;;;2.10;;
71806;SDS011;59655;42.590;23.364;2023-10-13T13:17:20;6.70;;;2.50;;
71806;SDS011;59655;42.590;23.364;2023-10-13T13:19:48;7.88;;;2.20;;
71806;SDS011;59655;42.590;23.364;2023-10-13T13:22:13;6.30;;;2.38;;
71806;SDS011;59655;42.590;23.364;2023-10-13T13:24:39;6.45;;;2.45;;
71806;SDS011;59655;42.590;23.364;2023-10-13T13:27:15;5.88;;;2.55;;
71806;SDS011;59655;42.590;23.364;2023-10-13T13:29:47;8.57;;;2.65;;
71806;SDS011;59655;42.590;23.364;2023-10-13T13:32:13;7.22;;;2.70;;
71806;SDS011;59655;42.590;23.364;2023-10-13T13:34:48;8.85;;;2.70;;
71806;SDS011;59655;42.590;23.364;2023-10-13T13:37:33;14.57;;;2.60;;
71806;SDS011;59655;42.590;23.364;2023-10-13T13:39:59;8.73;;;2.53;;
71806;SDS011;59655;42.590;23.364;2023-10-13T13:42:39;13.57;;;2.83;;
71806;SDS011;59655;42.590;23.364;2023-10-13T13:45:06;9.35;;;2.55;;
71806;SDS011;59655;42.590;23.364;2023-10-13T13:47:36;7.55;;;2.65;;
71806;SDS011;59655;42.590;23.364;2023-10-13T13:50:02;6.68;;;2.33;;
71806;SDS011;59655;42.590;23.364;2023-10-13T13:52:39;8.98;;;2.40;;
71806;SDS011;59655;42.590;23.364;2023-10-13T13:55:11;5.25;;;2.17;;
71806;SDS011;59655;42.590;23.364;2023-10-13T13:57:42;9.13;;;2.00;;
71806;SDS011;59655;42.590;23.364;2023-10-13T14:00:10;5.85;;;2.42;;
71806;SDS011;59655;42.590;23.364;2023-10-13T14:02:43;7.00;;;2.35;;
71806;SDS011;59655;42.590;23.364;2023-10-13T14:05:15;8.13;;;2.80;;
71806;SDS011;59655;42.590;23.364;2023-10-13T14:07:43;4.60;;;2.10;;
71806;SDS011;59655;42.590;23.364;2023-10-13T14:10:14;10.00;;;2.60;;
71806;SDS011;59655;42.590;23.364;2023-10-13T14:12:56;7.10;;;2.50;;
71806;SDS011;59655;42.590;23.364;2023-10-13T14:15:39;8.70;;;2.35;;
71806;SDS011;59655;42.590;23.364;2023-10-13T14:18:08;7.65;;;2.88;;
71806;SDS011;59655;42.590;23.364;2023-10-13T14:20:39;9.73;;;2.58;;
71806;SDS011;59655;42.590;23.364;2023-10-13T14:23:07;8.27;;;2.63;;
71806;SDS011;59655;42.590;23.364;2023-10-13T14:25:35;10.75;;;2.65;;
71806;SDS011;59655;42.590;23.364;2023-10-13T14:28:06;6.95;;;2.42;;
71806;SDS011;59655;42.590;23.364;2023-10-13T14:30:32;6.85;;;2.20;;
71806;SDS011;59655;42.590;23.364;2023-10-13T14:32:58;7.07;;;2.42;;
71806;SDS011;59655;42.590;23.364;2023-10-13T14:35:25;12.38;;;3.40;;
71806;SDS011;59655;42.590;23.364;2023-10-13T14:37:51;8.50;;;2.47;;
71806;SDS011;59655;42.590;23.364;2023-10-13T14:40:17;5.70;;;2.55;;
71806;SDS011;59655;42.590;23.364;2023-10-13T14:42:46;8.30;;;2.80;;
71806;SDS011;59655;42.590;23.364;2023-10-13T14:45:12;9.18;;;3.10;;
71806;SDS011;59655;42.590;23.364;2023-10-13T14:47:39;15.35;;;3.53;;
71806;SDS011;59655;42.590;23.364;2023-10-13T14:50:05;11.88;;;2.97;;
71806;SDS011;59655;42.590;23.364;2023-10-13T14:52:31;7.85;;;2.85;;
71806;SDS011;59655;42.590;23.364;2023-10-13T14:54:57;9.48;;;2.95;;
71806;SDS011;59655;42.590;23.364;2023-10-13T14:57:23;10.85;;;3.65;;
71806;SDS011;59655;42.590;23.364;2023-10-13T14:59:55;7.85;;;3.03;;
71806;SDS011;59655;42.590;23.364;2023-10-13T15:02:21;9.25;;;2.85;;
71806;SDS011;59655;42.590;23.364;2023-10-13T15:04:47;7.95;;;2.88;;
71806;SDS011;59655;42.590;23.364;2023-10-13T15:07:16;11.45;;;2.88;;
71806;SDS011;59655;42.590;23.364;2023-10-13T15:09:43;14.25;;;3.03;;
71806;SDS011;59655;42.590;23.364;2023-10-13T15:12:09;10.65;;;3.25;;
71806;SDS011;59655;42.590;23.364;2023-10-13T15:14:38;9.20;;;2.53;;
71806;SDS011;59655;42.590;23.364;2023-10-13T15:17:07;11.35;;;2.70;;
71806;SDS011;59655;42.590;23.364;2023-10-13T15:19:34;7.30;;;2.70;;
71806;SDS011;59655;42.590;23.364;2023-10-13T15:22:08;12.25;;;2.85;;
71806;SDS011;59655;42.590;23.364;2023-10-13T15:24:41;19.90;;;3.00;;
71806;SDS011;59655;42.590;23.364;2023-10-13T15:27:11;6.93;;;2.17;;
71806;SDS011;59655;42.590;23.364;2023-10-13T15:29:37;8.77;;;2.72;;
71806;SDS011;59655;42.590;23.364;2023-10-13T15:32:03;9.00;;;3.05;;
71806;SDS011;59655;42.590;23.364;2023-10-13T15:34:29;11.15;;;3.70;;
71806;SDS011;59655;42.590;23.364;2023-10-13T15:36:55;9.07;;;3.55;;
71806;SDS011;59655;42.590;23.364;2023-10-13T15:39:25;7.25;;;2.80;;